createdAt,value
2023-03-22T00:01:49.091Z,8.77
2023-03-22T00:05:56.155Z,8.80
2023-03-22T00:09:57.514Z,8.78
2023-03-22T00:13:58.952Z,8.77
2023-03-22T00:18:00.371Z,8.83
2023-03-22T00:22:03.322Z,8.87
2023-03-22T00:26:04.837Z,8.84
2023-03-22T00:30:06.921Z,8.87
2023-03-22T00:34:08.391Z,8.78
2023-03-22T00:38:11.119Z,8.87
2023-03-22T00:42:12.443Z,8.74
2023-03-22T00:46:14.424Z,8.72
2023-03-22T00:50:15.899Z,8.78
2023-03-22T00:54:18.656Z,8.71
2023-03-22T00:58:20.081Z,8.73
2023-03-22T01:02:21.421Z,8.74
2023-03-22T01:06:22.782Z,8.83
2023-03-22T01:10:25.488Z,8.74
2023-03-22T01:14:27.416Z,8.64
2023-03-22T01:18:28.769Z,8.77
2023-03-22T01:22:30.169Z,8.68
2023-03-22T01:26:32.939Z,8.59
2023-03-22T01:30:34.313Z,8.77
2023-03-22T01:34:35.712Z,8.71
2023-03-22T01:38:37.066Z,8.68
2023-03-22T01:42:39.785Z,8.49
2023-03-22T01:46:41.243Z,8.49
2023-03-22T01:50:45.257Z,8.54
2023-03-22T01:54:47.758Z,8.44
2023-03-22T01:58:51.553Z,8.29
2023-03-22T02:02:53.236Z,8.20
2023-03-22T02:06:55.071Z,8.10
2023-03-22T02:10:56.448Z,7.98
2023-03-22T02:15:03.265Z,7.90
2023-03-22T02:19:14.812Z,7.86
2023-03-22T02:23:34.165Z,7.66
2023-03-22T02:27:50.423Z,7.51
2023-03-22T02:32:04.714Z,7.40
2023-03-22T02:36:19.027Z,7.49
2023-03-22T02:40:25.639Z,7.47
2023-03-22T02:44:33.490Z,7.48
2023-03-22T02:48:39.303Z,7.51
2023-03-22T02:52:43.121Z,7.66
2023-03-22T02:56:48.324Z,7.62
2023-03-22T03:00:52.013Z,7.57
2023-03-22T03:04:54.068Z,7.58
2023-03-22T03:08:55.778Z,7.67
2023-03-22T03:12:59.217Z,7.59
2023-03-22T03:17:06.386Z,7.55
2023-03-22T03:21:12.208Z,7.53
2023-03-22T03:25:18.066Z,7.48
2023-03-22T03:29:22.569Z,7.51
2023-03-22T03:33:25.425Z,7.44
2023-03-22T03:37:29.399Z,7.40
2023-03-22T03:41:31.742Z,7.53
2023-03-22T03:45:35.370Z,7.40
2023-03-22T03:49:36.780Z,7.39
2023-03-22T03:53:38.131Z,7.09
2023-03-22T03:57:39.521Z,6.94
2023-03-22T04:01:42.416Z,6.88
2023-03-22T04:05:44.012Z,6.85
2023-03-22T04:09:45.392Z,6.74
2023-03-22T04:13:46.763Z,6.68
2023-03-22T04:17:49.566Z,6.65
2023-03-22T04:21:50.910Z,6.43
2023-03-22T04:25:52.312Z,6.30
2023-03-22T04:29:53.636Z,6.16
2023-03-22T04:33:56.370Z,6.27
2023-03-22T04:37:57.725Z,6.11
2023-03-22T04:41:59.120Z,5.94
2023-03-22T04:46:00.779Z,5.82
2023-03-22T04:50:03.659Z,5.66
2023-03-22T04:54:05.329Z,5.73
2023-03-22T04:58:06.662Z,5.78
2023-03-22T05:02:07.993Z,5.69
2023-03-22T05:06:11.137Z,5.66
2023-03-22T05:10:12.590Z,5.59
2023-03-22T05:14:13.938Z,5.53
2023-03-22T05:18:15.609Z,5.43
2023-03-22T05:22:18.523Z,5.52
2023-03-22T05:26:19.898Z,5.52
2023-03-22T05:30:21.224Z,5.66
2023-03-22T05:34:22.564Z,5.66
2023-03-22T05:38:25.261Z,5.69
2023-03-22T05:42:26.637Z,5.72
2023-03-22T05:46:28.040Z,5.77
2023-03-22T05:50:29.395Z,5.85
2023-03-22T05:54:32.121Z,5.88
2023-03-22T05:58:33.473Z,6.07
2023-03-22T06:02:35.090Z,6.18
2023-03-22T06:06:36.458Z,6.41
2023-03-22T06:10:39.408Z,6.63
2023-03-22T06:14:40.898Z,6.91
2023-03-22T06:18:42.274Z,7.17
2023-03-22T06:22:43.645Z,7.44
2023-03-22T06:26:46.366Z,7.69
2023-03-22T06:30:47.848Z,7.97
2023-03-22T06:34:49.212Z,8.28
2023-03-22T06:38:50.624Z,8.44
2023-03-22T06:42:53.605Z,8.73
2023-03-22T06:46:55.107Z,8.99
2023-03-22T06:50:56.473Z,9.16
2023-03-22T06:54:57.840Z,9.34
2023-03-22T06:59:00.571Z,9.55
2023-03-22T07:03:01.922Z,9.63
2023-03-22T07:07:03.262Z,9.96
2023-03-22T07:11:05.005Z,10.08
2023-03-22T07:15:08.668Z,10.03
2023-03-22T07:19:10.091Z,10.33
2023-03-22T07:23:11.448Z,10.38
2023-03-22T07:27:12.819Z,10.64
2023-03-22T07:31:15.666Z,10.85
2023-03-22T07:35:17.242Z,11.06
2023-03-22T07:39:18.636Z,11.37
2023-03-22T07:43:20.017Z,11.70
2023-03-22T07:47:39.547Z,11.77
2023-03-22T07:51:42.018Z,12.05
2023-03-22T07:55:43.427Z,12.39
2023-03-22T07:59:44.783Z,12.54
2023-03-22T08:03:47.516Z,12.82
2023-03-22T08:07:48.872Z,13.01
2023-03-22T08:11:50.215Z,13.11
2023-03-22T08:15:51.573Z,13.24
2023-03-22T08:19:54.311Z,13.50
2023-03-22T08:23:55.643Z,13.46
2023-03-22T08:27:57.241Z,13.55
2023-03-22T08:31:58.682Z,13.81
2023-03-22T08:36:11.923Z,13.63
2023-03-22T08:40:13.533Z,13.59
2023-03-22T08:44:14.904Z,13.77
2023-03-22T08:48:16.438Z,13.76
2023-03-22T08:52:19.207Z,13.78
2023-03-22T08:56:20.576Z,14.03
2023-03-22T09:00:21.963Z,14.36
2023-03-22T09:04:23.370Z,14.71
2023-03-22T09:08:26.151Z,14.85
2023-03-22T09:12:27.551Z,15.03
2023-03-22T09:16:29.082Z,14.83
2023-03-22T09:20:30.465Z,14.75
2023-03-22T09:24:33.193Z,14.66
2023-03-22T09:28:35.101Z,14.83
2023-03-22T09:32:36.679Z,15.17
2023-03-22T09:36:38.027Z,15.32
2023-03-22T09:40:50.424Z,15.47
2023-03-22T09:44:52.204Z,15.29
2023-03-22T09:48:53.606Z,15.42
2023-03-22T09:52:55.124Z,15.66
2023-03-22T09:57:00.178Z,15.78
2023-03-22T10:01:05.196Z,15.81
2023-03-22T10:05:13.318Z,15.96
2023-03-22T10:09:16.514Z,15.82
2023-03-22T10:13:23.499Z,15.82
2023-03-22T10:17:26.319Z,15.74
2023-03-22T10:21:27.758Z,15.83
2023-03-22T10:25:33.348Z,15.68
2023-03-22T10:29:38.304Z,15.80
2023-03-22T10:33:42.538Z,15.67
2023-03-22T10:37:46.156Z,15.82
2023-03-22T10:41:48.665Z,16.00
2023-03-22T10:45:52.530Z,16.12
2023-03-22T10:49:55.957Z,16.26
2023-03-22T10:53:57.773Z,16.34
2023-03-22T10:58:05.008Z,16.60
2023-03-22T11:02:16.496Z,16.54
2023-03-22T11:06:19.065Z,16.71
2023-03-22T11:10:25.030Z,16.71
2023-03-22T11:14:29.391Z,16.71
2023-03-22T11:18:32.988Z,16.83
2023-03-22T11:22:36.119Z,16.98
2023-03-22T11:26:40.758Z,17.00
2023-03-22T11:30:56.935Z,17.17
2023-03-22T11:35:00.920Z,17.25
2023-03-22T11:39:05.870Z,17.40
2023-03-22T11:43:12.401Z,17.36
2023-03-22T11:47:14.116Z,17.33
2023-03-22T11:51:18.094Z,17.35
2023-03-22T11:55:19.831Z,17.41
2023-03-22T11:59:23.093Z,17.47
2023-03-22T12:03:27.479Z,17.64
2023-03-22T12:07:31.589Z,17.48
2023-03-22T12:11:35.921Z,17.62
2023-03-22T12:15:40.202Z,17.76
2023-03-22T12:19:45.954Z,17.84
2023-03-22T12:23:48.715Z,17.97
2023-03-22T12:27:53.233Z,18.18
2023-03-22T12:31:59.014Z,18.13
2023-03-22T12:36:02.626Z,18.22
2023-03-22T12:40:07.713Z,18.41
2023-03-22T12:44:13.725Z,18.51
2023-03-22T12:48:18.917Z,18.51
2023-03-22T12:52:23.832Z,18.40
2023-03-22T12:56:29.558Z,18.38
2023-03-22T13:00:34.645Z,18.41
2023-03-22T13:04:49.354Z,18.40
2023-03-22T13:09:17.694Z,18.64
2023-03-22T13:13:37.824Z,18.79
2023-03-22T13:17:44.834Z,18.91
2023-03-22T13:21:47.914Z,19.05
2023-03-22T13:25:59.854Z,19.00
2023-03-22T13:30:01.354Z,18.94
2023-03-22T13:34:04.393Z,18.90
2023-03-22T13:38:08.427Z,18.80
2023-03-22T13:42:18.016Z,18.83
2023-03-22T13:46:43.193Z,19.00
2023-03-22T13:50:45.997Z,19.20
2023-03-22T13:54:49.431Z,19.27
2023-03-22T13:58:51.716Z,19.15
2023-03-22T14:02:53.543Z,19.27
2023-03-22T14:06:58.503Z,19.57
2023-03-22T14:11:02.490Z,19.49
2023-03-22T14:15:06.501Z,19.35
2023-03-22T14:19:08.536Z,19.45
